International, Washington
Current Conditions -  °F | °C
As of 3:53 AM on Thursday 27 Nov 2014 (Local Time) from KBFI Reporting Station
Overcast Overcast  
Wind Chill: 57°   Ceiling: 3200
Heat Index: 57°   Visibility: 10mi
Dew Point: 46°   Wind: 12mph
Humidity: 67%   Direction: 170°S
Pressure: 29.86"   Gusts: 20mph
Location:  47.6024°N, 122.326°W
Report Text: KBFI 271153Z 17010G17KT 10SM OVC032 14/08 A2986 RMK AO2 SLP109 70001 T01390078 10167 20139 58003
Loading
Personal Weather Stations






























Interactive Weather Map New forecast layout! Learn more

10-Day Weather Forecast

Advertisements
Track Severe Weather on mobile